Home   Weather   Aktau   Past weeks
Flag for Kazakhstan

Past Weather in Aktau, Kazakhstan — Yesterday and Last 2 Weeks

Currently: 39 °F. Passing clouds. (Weather station: Aktau, Kazakhstan). See more current weather

Past Weather in Aktau — Graph

°F

Aktau Temperature Yesterday

Maximum temperature yesterday: 34 °F (at 3:00 pm)
Minimum temperature yesterday: 16 °F (at 7:30 am)
Average temperature yesterday: 25 °F

High & Low Weather Summary for the Past Weeks

 TemperatureHumidityPressure
High66 °F (Feb 13, 4:30 pm)100% (Feb 12, 8:30 am)30.74 "Hg (Feb 12, 8:30 am)
Low10 °F (Feb 19, 7:30 am)20% (Feb 16, 5:30 pm)29.83 "Hg (Feb 14, 4:30 am)
Average31 °F71%30.32 "Hg
* Reported Feb 11 4:00 pm — Feb 26 4:30 pm, Aktau. Weather by CustomWeather, © 2024

Note: Actual official high and low records may vary slightly from our data, if they occured in-between our weather recording intervals... More about our weather records

Aktau Weather History for the Previous 24 Hours

Scroll right to see more
 ConditionsComfort  
Time TempWeatherWind HumidityBarometerVisibility
4:30 pm
Mon, Feb 26
39 °FPassing clouds.8 mph24%30.63 "HgN/A
4:00 pm39 °FSunny.6 mph22%30.63 "Hg10 mi
3:30 pm37 °FSunny.6 mph22%30.63 "Hg10 mi
3:00 pm36 °FSunny.10 mph23%30.66 "Hg10 mi
2:30 pm36 °FSunny.8 mph25%30.66 "Hg10 mi
2:00 pm36 °FSunny.10 mph27%30.66 "Hg10 mi
1:30 pm34 °FSunny.13 mph29%30.69 "Hg10 mi
1:00 pm32 °FSunny.10 mph34%30.69 "Hg10 mi
12:30 pm30 °FSunny.13 mph37%30.69 "Hg10 mi
12:00 pm30 °FSunny.10 mph37%30.69 "Hg10 mi
11:30 am28 °FSunny.10 mph40%30.69 "Hg10 mi
11:00 am27 °FSunny.10 mph43%30.69 "Hg10 mi
10:30 am27 °FSunny.10 mph43%30.72 "Hg10 mi
10:00 am23 °FClear.8 mph54%30.72 "Hg10 mi
9:30 am21 °FPassing clouds.6 mph54%30.69 "HgN/A
9:00 am18 °FClear.8 mph68%30.69 "Hg10 mi
8:30 am16 °FClear.8 mph67%30.69 "Hg10 mi
8:00 am18 °FClear.10 mph62%30.69 "Hg10 mi
7:30 am18 °FClear.10 mph62%30.69 "Hg10 mi
6:30 am18 °FClear.6 mph58%30.69 "Hg10 mi
6:00 am18 °FClear.8 mph62%30.69 "Hg10 mi
4:30 am16 °FClear.8 mph67%30.72 "Hg10 mi
4:00 am16 °FClear.6 mph67%30.72 "Hg10 mi
3:30 am18 °FClear.8 mph62%30.72 "Hg10 mi
3:00 am16 °FClear.6 mph73%30.72 "Hg10 mi
2:30 am18 °FClear.1 mph68%30.72 "Hg10 mi
2:00 am19 °FClear.3 mph58%30.72 "Hg10 mi
1:30 am19 °FClear.6 mph63%30.72 "Hg10 mi
1:00 am19 °FClear.10 mph63%30.72 "Hg10 mi
12:30 am21 °FClear.15 mph63%30.72 "Hg10 mi
12:00 am21 °FClear.13 mph63%30.72 "Hg10 mi
11:30 pm
Sun, Feb 25
23 °FClear.13 mph58%30.74 "Hg10 mi
11:00 pm23 °FClear.10 mph58%30.72 "Hg10 mi
10:30 pm25 °FClear.15 mph59%30.72 "Hg10 mi
10:00 pm23 °FClear.13 mph63%30.72 "Hg10 mi
9:30 pm25 °FClear.10 mph59%30.72 "Hg10 mi
9:00 pm25 °FSunny.13 mph63%30.72 "Hg10 mi
8:30 pm25 °FSunny.13 mph63%30.72 "Hg10 mi
8:00 pm27 °FSunny.13 mph59%30.69 "Hg10 mi
7:30 pm28 °FSunny.13 mph55%30.69 "Hg10 mi
6:30 pm32 °FSunny.15 mph44%30.69 "Hg10 mi
6:00 pm32 °FSunny.13 mph44%30.72 "Hg10 mi
5:30 pm34 °FSunny.15 mph44%30.72 "Hg10 mi
5:00 pm34 °FSunny.15 mph44%30.72 "Hg10 mi
Weather by CustomWeather, © 2024

See weather overview